sensor_id;sensor_type;location;lat;lon;timestamp;temperature;humidity
14555;DHT22;7364;50.870;4.722;2023-10-13T00:02:17;18.80;99.90
14555;DHT22;7364;50.870;4.722;2023-10-13T00:04:47;18.80;99.90
14555;DHT22;7364;50.870;4.722;2023-10-13T00:07:15;18.90;99.90
14555;DHT22;7364;50.870;4.722;2023-10-13T00:09:43;19.00;99.90
14555;DHT22;7364;50.870;4.722;2023-10-13T00:12:10;19.00;99.90
14555;DHT22;7364;50.870;4.722;2023-10-13T00:14:40;19.00;99.90
14555;DHT22;7364;50.870;4.722;2023-10-13T00:17:11;19.10;99.90
14555;DHT22;7364;50.870;4.722;2023-10-13T00:19:46;19.00;99.90
14555;DHT22;7364;50.870;4.722;2023-10-13T00:22:17;19.00;99.90
14555;DHT22;7364;50.870;4.722;2023-10-13T00:24:46;18.90;99.90
14555;DHT22;7364;50.870;4.722;2023-10-13T00:27:15;18.80;99.90
14555;DHT22;7364;50.870;4.722;2023-10-13T00:29:57;18.80;99.90
14555;DHT22;7364;50.870;4.722;2023-10-13T00:32:49;18.70;99.90
14555;DHT22;7364;50.870;4.722;2023-10-13T00:35:20;18.80;99.90
14555;DHT22;7364;50.870;4.722;2023-10-13T00:37:54;18.80;99.90
14555;DHT22;7364;50.870;4.722;2023-10-13T00:40:24;18.80;99.90
14555;DHT22;7364;50.870;4.722;2023-10-13T00:43:05;18.80;99.90
14555;DHT22;7364;50.870;4.722;2023-10-13T00:45:50;18.80;99.90
14555;DHT22;7364;50.870;4.722;2023-10-13T00:48:23;18.90;99.90
14555;DHT22;7364;50.870;4.722;2023-10-13T00:50:58;19.00;99.90
14555;DHT22;7364;50.870;4.722;2023-10-13T00:53:29;18.90;99.90
14555;DHT22;7364;50.870;4.722;2023-10-13T00:55:59;18.90;99.90
14555;DHT22;7364;50.870;4.722;2023-10-13T00:58:32;18.90;99.90
14555;DHT22;7364;50.870;4.722;2023-10-13T01:01:01;18.90;99.90
14555;DHT22;7364;50.870;4.722;2023-10-13T01:03:46;19.10;99.90
14555;DHT22;7364;50.870;4.722;2023-10-13T01:06:16;19.30;99.90
14555;DHT22;7364;50.870;4.722;2023-10-13T01:08:45;19.30;99.90
14555;DHT22;7364;50.870;4.722;2023-10-13T01:11:18;19.30;99.90
14555;DHT22;7364;50.870;4.722;2023-10-13T01:13:45;19.40;99.90
14555;DHT22;7364;50.870;4.722;2023-10-13T01:16:19;19.30;99.90
14555;DHT22;7364;50.870;4.722;2023-10-13T01:18:49;19.30;99.90
14555;DHT22;7364;50.870;4.722;2023-10-13T01:21:17;19.30;99.90
14555;DHT22;7364;50.870;4.722;2023-10-13T01:23:48;19.30;99.90
14555;DHT22;7364;50.870;4.722;2023-10-13T01:26:16;19.20;99.90
14555;DHT22;7364;50.870;4.722;2023-10-13T01:28:48;19.20;99.90
14555;DHT22;7364;50.870;4.722;2023-10-13T01:31:16;19.10;99.90
14555;DHT22;7364;50.870;4.722;2023-10-13T01:33:51;19.10;99.90
14555;DHT22;7364;50.870;4.722;2023-10-13T01:36:21;19.00;99.90
14555;DHT22;7364;50.870;4.722;2023-10-13T01:38:49;19.00;99.90
14555;DHT22;7364;50.870;4.722;2023-10-13T01:41:18;18.90;99.90
14555;DHT22;7364;50.870;4.722;2023-10-13T01:43:44;18.80;99.90
14555;DHT22;7364;50.870;4.722;2023-10-13T01:46:11;18.70;99.90
14555;DHT22;7364;50.870;4.722;2023-10-13T01:48:41;18.70;99.90
14555;DHT22;7364;50.870;4.722;2023-10-13T01:51:09;18.70;99.90
14555;DHT22;7364;50.870;4.722;2023-10-13T01:53:40;18.70;99.90
14555;DHT22;7364;50.870;4.722;2023-10-13T01:56:09;18.80;99.90
14555;DHT22;7364;50.870;4.722;2023-10-13T01:58:40;18.80;99.90
14555;DHT22;7364;50.870;4.722;2023-10-13T02:01:14;18.80;99.90
14555;DHT22;7364;50.870;4.722;2023-10-13T02:03:53;18.80;99.90
14555;DHT22;7364;50.870;4.722;2023-10-13T02:06:29;18.70;99.90
14555;DHT22;7364;50.870;4.722;2023-10-13T02:09:00;18.60;99.90
14555;DHT22;7364;50.870;4.722;2023-10-13T02:11:39;18.60;99.90
14555;DHT22;7364;50.870;4.722;2023-10-13T02:14:07;18.60;99.90
14555;DHT22;7364;50.870;4.722;2023-10-13T02:16:37;18.60;99.90
14555;DHT22;7364;50.870;4.722;2023-10-13T02:19:05;18.60;99.90
14555;DHT22;7364;50.870;4.722;2023-10-13T02:21:34;18.60;99.90
14555;DHT22;7364;50.870;4.722;2023-10-13T02:24:05;18.50;99.90
14555;DHT22;7364;50.870;4.722;2023-10-13T02:26:40;18.50;99.90
14555;DHT22;7364;50.870;4.722;2023-10-13T02:29:06;18.50;99.90
14555;DHT22;7364;50.870;4.722;2023-10-13T02:31:35;18.50;99.90
14555;DHT22;7364;50.870;4.722;2023-10-13T02:34:02;18.50;99.90
14555;DHT22;7364;50.870;4.722;2023-10-13T02:36:32;18.50;99.90
14555;DHT22;7364;50.870;4.722;2023-10-13T02:39:03;18.50;99.90
14555;DHT22;7364;50.870;4.722;2023-10-13T02:41:33;18.50;99.90
14555;DHT22;7364;50.870;4.722;2023-10-13T02:44:05;18.60;99.90
14555;DHT22;7364;50.870;4.722;2023-10-13T02:46:34;18.60;99.90
14555;DHT22;7364;50.870;4.722;2023-10-13T02:49:02;18.60;99.90
14555;DHT22;7364;50.870;4.722;2023-10-13T02:51:36;18.70;99.90
14555;DHT22;7364;50.870;4.722;2023-10-13T02:54:04;18.70;99.90
14555;DHT22;7364;50.870;4.722;2023-10-13T02:56:37;18.70;99.90
14555;DHT22;7364;50.870;4.722;2023-10-13T02:59:04;18.70;99.90
14555;DHT22;7364;50.870;4.722;2023-10-13T03:01:32;18.60;99.90
14555;DHT22;7364;50.870;4.722;2023-10-13T03:04:00;18.60;99.90
14555;DHT22;7364;50.870;4.722;2023-10-13T03:06:29;18.70;99.90
14555;DHT22;7364;50.870;4.722;2023-10-13T03:08:59;18.60;99.90
14555;DHT22;7364;50.870;4.722;2023-10-13T03:11:40;18.60;99.90
14555;DHT22;7364;50.870;4.722;2023-10-13T03:14:09;18.70;99.90
14555;DHT22;7364;50.870;4.722;2023-10-13T03:16:50;18.60;99.90
14555;DHT22;7364;50.870;4.722;2023-10-13T03:19:16;18.60;99.90
14555;DHT22;7364;50.870;4.722;2023-10-13T03:21:45;18.50;99.90
14555;DHT22;7364;50.870;4.722;2023-10-13T03:24:20;18.50;99.90
14555;DHT22;7364;50.870;4.722;2023-10-13T03:26:59;18.60;99.90
14555;DHT22;7364;50.870;4.722;2023-10-13T03:29:36;18.60;99.90
14555;DHT22;7364;50.870;4.722;2023-10-13T03:32:04;18.50;99.90
14555;DHT22;7364;50.870;4.722;2023-10-13T03:34:38;18.50;99.90
14555;DHT22;7364;50.870;4.722;2023-10-13T03:37:16;18.50;99.90
14555;DHT22;7364;50.870;4.722;2023-10-13T03:40:04;18.50;99.90
14555;DHT22;7364;50.870;4.722;2023-10-13T03:42:34;18.50;99.90
14555;DHT22;7364;50.870;4.722;2023-10-13T03:45:08;18.50;99.90
14555;DHT22;7364;50.870;4.722;2023-10-13T03:47:36;18.60;99.90
14555;DHT22;7364;50.870;4.722;2023-10-13T03:50:05;18.50;99.90
14555;DHT22;7364;50.870;4.722;2023-10-13T03:52:42;18.50;99.90
14555;DHT22;7364;50.870;4.722;2023-10-13T03:55:10;18.60;99.90
14555;DHT22;7364;50.870;4.722;2023-10-13T03:57:44;18.60;99.90
14555;DHT22;7364;50.870;4.722;2023-10-13T04:00:17;18.70;99.90
14555;DHT22;7364;50.870;4.722;2023-10-13T04:02:50;18.80;99.90
14555;DHT22;7364;50.870;4.722;2023-10-13T04:05:31;18.80;99.90
14555;DHT22;7364;50.870;4.722;2023-10-13T04:08:04;18.70;99.90
14555;DHT22;7364;50.870;4.722;2023-10-13T04:10:58;18.70;99.90
14555;DHT22;7364;50.870;4.722;2023-10-13T04:13:43;18.70;99.90
14555;DHT22;7364;50.870;4.722;2023-10-13T04:16:29;18.60;99.90
14555;DHT22;7364;50.870;4.722;2023-10-13T04:19:04;18.60;99.90
14555;DHT22;7364;50.870;4.722;2023-10-13T04:21:36;18.70;99.90
14555;DHT22;7364;50.870;4.722;2023-10-13T04:24:09;18.60;99.90
14555;DHT22;7364;50.870;4.722;2023-10-13T04:26:50;18.70;99.90
14555;DHT22;7364;50.870;4.722;2023-10-13T04:29:42;18.70;99.90
14555;DHT22;7364;50.870;4.722;2023-10-13T04:32:38;18.80;99.90
14555;DHT22;7364;50.870;4.722;2023-10-13T04:35:05;18.80;99.90
14555;DHT22;7364;50.870;4.722;2023-10-13T04:37:44;18.80;99.90
14555;DHT22;7364;50.870;4.722;2023-10-13T04:40:18;18.90;99.90
14555;DHT22;7364;50.870;4.722;2023-10-13T04:42:51;18.90;99.90
14555;DHT22;7364;50.870;4.722;2023-10-13T04:45:22;18.90;99.90
14555;DHT22;7364;50.870;4.722;2023-10-13T04:48:17;18.90;99.90
14555;DHT22;7364;50.870;4.722;2023-10-13T04:50:46;18.80;99.90
14555;DHT22;7364;50.870;4.722;2023-10-13T04:53:17;18.90;99.90
14555;DHT22;7364;50.870;4.722;2023-10-13T04:56:00;19.00;99.90
14555;DHT22;7364;50.870;4.722;2023-10-13T04:58:56;19.00;99.90
14555;DHT22;7364;50.870;4.722;2023-10-13T05:01:40;19.10;99.90
14555;DHT22;7364;50.870;4.722;2023-10-13T05:04:50;19.00;99.90
14555;DHT22;7364;50.870;4.722;2023-10-13T05:07:35;18.80;99.90
14555;DHT22;7364;50.870;4.722;2023-10-13T05:10:19;18.80;99.90
14555;DHT22;7364;50.870;4.722;2023-10-13T05:13:04;18.80;99.90
14555;DHT22;7364;50.870;4.722;2023-10-13T05:15:51;18.70;99.90
14555;DHT22;7364;50.870;4.722;2023-10-13T05:18:36;18.60;99.90
14555;DHT22;7364;50.870;4.722;2023-10-13T05:21:22;18.50;99.90
14555;DHT22;7364;50.870;4.722;2023-10-13T05:24:09;18.50;99.90
14555;DHT22;7364;50.870;4.722;2023-10-13T05:26:56;18.40;99.90
14555;DHT22;7364;50.870;4.722;2023-10-13T05:29:41;18.40;99.90
14555;DHT22;7364;50.870;4.722;2023-10-13T05:32:26;18.40;99.90
14555;DHT22;7364;50.870;4.722;2023-10-13T05:35:11;18.40;99.90
14555;DHT22;7364;50.870;4.722;2023-10-13T05:37:57;18.40;99.90
14555;DHT22;7364;50.870;4.722;2023-10-13T05:40:51;18.40;99.90
14555;DHT22;7364;50.870;4.722;2023-10-13T05:43:36;18.40;99.90
14555;DHT22;7364;50.870;4.722;2023-10-13T05:46:21;18.30;99.90
14555;DHT22;7364;50.870;4.722;2023-10-13T05:49:15;18.30;99.90
14555;DHT22;7364;50.870;4.722;2023-10-13T05:52:06;18.40;99.90
14555;DHT22;7364;50.870;4.722;2023-10-13T05:54:46;18.30;99.90
14555;DHT22;7364;50.870;4.722;2023-10-13T05:57:31;18.30;99.90
14555;DHT22;7364;50.870;4.722;2023-10-13T06:00:16;18.30;99.90
14555;DHT22;7364;50.870;4.722;2023-10-13T06:03:01;18.30;99.90
14555;DHT22;7364;50.870;4.722;2023-10-13T06:05:45;18.30;99.90
14555;DHT22;7364;50.870;4.722;2023-10-13T06:08:30;18.30;99.90
14555;DHT22;7364;50.870;4.722;2023-10-13T06:11:16;18.30;99.90
14555;DHT22;7364;50.870;4.722;2023-10-13T06:14:00;18.20;99.90
14555;DHT22;7364;50.870;4.722;2023-10-13T06:16:45;18.20;99.90
14555;DHT22;7364;50.870;4.722;2023-10-13T06:19:29;18.30;99.90
14555;DHT22;7364;50.870;4.722;2023-10-13T06:22:15;18.20;99.90
14555;DHT22;7364;50.870;4.722;2023-10-13T06:24:59;18.20;99.90
14555;DHT22;7364;50.870;4.722;2023-10-13T06:27:45;18.30;99.90
14555;DHT22;7364;50.870;4.722;2023-10-13T06:30:30;18.30;99.90
14555;DHT22;7364;50.870;4.722;2023-10-13T06:32:58;18.30;99.90
14555;DHT22;7364;50.870;4.722;2023-10-13T06:35:26;18.30;99.90
14555;DHT22;7364;50.870;4.722;2023-10-13T06:37:55;18.40;99.90
14555;DHT22;7364;50.870;4.722;2023-10-13T06:40:26;18.40;99.90
14555;DHT22;7364;50.870;4.722;2023-10-13T06:43:00;18.40;99.90
14555;DHT22;7364;50.870;4.722;2023-10-13T06:45:39;18.40;99.90
14555;DHT22;7364;50.870;4.722;2023-10-13T06:48:07;18.40;99.90
14555;DHT22;7364;50.870;4.722;2023-10-13T06:50:37;18.50;99.90
14555;DHT22;7364;50.870;4.722;2023-10-13T06:53:07;18.50;99.90
14555;DHT22;7364;50.870;4.722;2023-10-13T06:55:38;18.50;99.90
14555;DHT22;7364;50.870;4.722;2023-10-13T06:58:07;18.50;99.90
14555;DHT22;7364;50.870;4.722;2023-10-13T07:00:39;18.50;99.90
14555;DHT22;7364;50.870;4.722;2023-10-13T07:03:19;18.60;99.90
14555;DHT22;7364;50.870;4.722;2023-10-13T07:05:47;18.60;99.90
14555;DHT22;7364;50.870;4.722;2023-10-13T07:08:15;18.60;99.90
14555;DHT22;7364;50.870;4.722;2023-10-13T07:10:48;18.70;99.90
14555;DHT22;7364;50.870;4.722;2023-10-13T07:13:29;18.60;99.90
14555;DHT22;7364;50.870;4.722;2023-10-13T07:15:56;18.70;99.90
14555;DHT22;7364;50.870;4.722;2023-10-13T07:18:31;18.80;99.90
14555;DHT22;7364;50.870;4.722;2023-10-13T07:21:03;18.80;99.90
14555;DHT22;7364;50.870;4.722;2023-10-13T07:23:36;18.80;99.90
14555;DHT22;7364;50.870;4.722;2023-10-13T07:26:05;18.80;99.90
14555;DHT22;7364;50.870;4.722;2023-10-13T07:28:35;18.90;99.90
14555;DHT22;7364;50.870;4.722;2023-10-13T07:31:11;18.90;99.90
14555;DHT22;7364;50.870;4.722;2023-10-13T07:33:39;18.80;99.90
14555;DHT22;7364;50.870;4.722;2023-10-13T07:36:09;18.90;99.90
14555;DHT22;7364;50.870;4.722;2023-10-13T07:38:44;19.00;99.90
14555;DHT22;7364;50.870;4.722;2023-10-13T07:41:14;19.10;99.90
14555;DHT22;7364;50.870;4.722;2023-10-13T07:43:44;19.20;99.90
14555;DHT22;7364;50.870;4.722;2023-10-13T07:46:12;19.30;99.90
14555;DHT22;7364;50.870;4.722;2023-10-13T07:48:39;19.40;99.90
14555;DHT22;7364;50.870;4.722;2023-10-13T07:51:11;19.50;99.90
14555;DHT22;7364;50.870;4.722;2023-10-13T07:53:42;19.50;99.90
14555;DHT22;7364;50.870;4.722;2023-10-13T07:56:09;19.60;99.90
14555;DHT22;7364;50.870;4.722;2023-10-13T07:58:38;19.60;99.90
14555;DHT22;7364;50.870;4.722;2023-10-13T08:01:19;19.70;99.90
14555;DHT22;7364;50.870;4.722;2023-10-13T08:03:47;19.70;99.90
14555;DHT22;7364;50.870;4.722;2023-10-13T08:06:14;19.90;99.90
14555;DHT22;7364;50.870;4.722;2023-10-13T08:08:54;20.00;99.90
14555;DHT22;7364;50.870;4.722;2023-10-13T08:11:32;20.10;99.90
14555;DHT22;7364;50.870;4.722;2023-10-13T08:14:03;20.20;99.90
14555;DHT22;7364;50.870;4.722;2023-10-13T08:16:50;20.40;99.90
14555;DHT22;7364;50.870;4.722;2023-10-13T08:19:21;20.70;99.90
14555;DHT22;7364;50.870;4.722;2023-10-13T08:21:53;20.60;99.90
14555;DHT22;7364;50.870;4.722;2023-10-13T08:24:23;20.50;99.90
14555;DHT22;7364;50.870;4.722;2023-10-13T08:27:16;20.50;99.90
14555;DHT22;7364;50.870;4.722;2023-10-13T08:29:57;20.40;99.90
14555;DHT22;7364;50.870;4.722;2023-10-13T08:32:43;20.30;99.90
14555;DHT22;7364;50.870;4.722;2023-10-13T08:35:22;20.40;99.90
14555;DHT22;7364;50.870;4.722;2023-10-13T08:38:00;20.40;99.90
14555;DHT22;7364;50.870;4.722;2023-10-13T08:40:30;20.30;99.90
14555;DHT22;7364;50.870;4.722;2023-10-13T08:43:14;20.30;99.90
14555;DHT22;7364;50.870;4.722;2023-10-13T08:45:43;20.40;99.90
14555;DHT22;7364;50.870;4.722;2023-10-13T08:48:21;20.40;99.90
14555;DHT22;7364;50.870;4.722;2023-10-13T08:50:57;20.70;99.90
14555;DHT22;7364;50.870;4.722;2023-10-13T08:53:31;20.50;99.90
14555;DHT22;7364;50.870;4.722;2023-10-13T08:56:00;20.50;99.90
14555;DHT22;7364;50.870;4.722;2023-10-13T08:58:31;20.50;99.90
14555;DHT22;7364;50.870;4.722;2023-10-13T09:01:12;20.50;99.90
14555;DHT22;7364;50.870;4.722;2023-10-13T09:04:02;20.60;99.90
14555;DHT22;7364;50.870;4.722;2023-10-13T09:06:44;20.60;99.90
14555;DHT22;7364;50.870;4.722;2023-10-13T09:09:13;20.70;99.90
14555;DHT22;7364;50.870;4.722;2023-10-13T09:11:53;20.70;99.90
14555;DHT22;7364;50.870;4.722;2023-10-13T09:14:34;20.80;99.90
14555;DHT22;7364;50.870;4.722;2023-10-13T09:17:04;20.80;99.90
14555;DHT22;7364;50.870;4.722;2023-10-13T09:19:47;20.90;99.90
14555;DHT22;7364;50.870;4.722;2023-10-13T09:22:22;20.90;99.90
14555;DHT22;7364;50.870;4.722;2023-10-13T09:24:55;21.30;99.90
14555;DHT22;7364;50.870;4.722;2023-10-13T09:27:25;21.40;99.90
14555;DHT22;7364;50.870;4.722;2023-10-13T09:29:57;21.30;99.90
14555;DHT22;7364;50.870;4.722;2023-10-13T09:32:27;21.30;99.90
14555;DHT22;7364;50.870;4.722;2023-10-13T09:35:01;21.20;99.90
14555;DHT22;7364;50.870;4.722;2023-10-13T09:37:32;21.40;99.90
14555;DHT22;7364;50.870;4.722;2023-10-13T09:40:04;21.40;99.90
14555;DHT22;7364;50.870;4.722;2023-10-13T09:42:39;21.40;99.90
14555;DHT22;7364;50.870;4.722;2023-10-13T09:45:08;21.50;99.90
14555;DHT22;7364;50.870;4.722;2023-10-13T09:47:39;21.30;99.90
14555;DHT22;7364;50.870;4.722;2023-10-13T09:50:08;21.40;99.90
14555;DHT22;7364;50.870;4.722;2023-10-13T09:52:50;21.50;99.90
14555;DHT22;7364;50.870;4.722;2023-10-13T09:55:26;21.50;99.90
14555;DHT22;7364;50.870;4.722;2023-10-13T09:58:00;21.50;99.90
14555;DHT22;7364;50.870;4.722;2023-10-13T10:00:40;21.50;99.90
14555;DHT22;7364;50.870;4.722;2023-10-13T10:03:15;21.40;99.90
14555;DHT22;7364;50.870;4.722;2023-10-13T10:05:57;21.40;99.90
14555;DHT22;7364;50.870;4.722;2023-10-13T10:08:31;21.40;99.90
14555;DHT22;7364;50.870;4.722;2023-10-13T10:11:14;21.50;99.90
14555;DHT22;7364;50.870;4.722;2023-10-13T10:13:52;21.80;99.90
14555;DHT22;7364;50.870;4.722;2023-10-13T10:16:32;21.90;99.90
14555;DHT22;7364;50.870;4.722;2023-10-13T10:19:02;22.00;99.90
14555;DHT22;7364;50.870;4.722;2023-10-13T10:21:36;22.10;99.90
14555;DHT22;7364;50.870;4.722;2023-10-13T10:24:15;22.20;99.90
14555;DHT22;7364;50.870;4.722;2023-10-13T10:26:50;22.20;99.90
14555;DHT22;7364;50.870;4.722;2023-10-13T10:29:18;22.10;99.90
14555;DHT22;7364;50.870;4.722;2023-10-13T10:31:46;22.10;99.90
14555;DHT22;7364;50.870;4.722;2023-10-13T10:34:14;22.20;99.90
14555;DHT22;7364;50.870;4.722;2023-10-13T10:36:54;22.60;99.90
14555;DHT22;7364;50.870;4.722;2023-10-13T10:39:33;22.80;99.90
14555;DHT22;7364;50.870;4.722;2023-10-13T10:42:11;22.90;99.90
14555;DHT22;7364;50.870;4.722;2023-10-13T10:44:50;23.10;99.90
14555;DHT22;7364;50.870;4.722;2023-10-13T10:47:21;23.10;99.90
14555;DHT22;7364;50.870;4.722;2023-10-13T10:49:59;22.90;99.90
14555;DHT22;7364;50.870;4.722;2023-10-13T10:52:35;23.10;99.90
14555;DHT22;7364;50.870;4.722;2023-10-13T10:55:05;22.90;99.90
14555;DHT22;7364;50.870;4.722;2023-10-13T10:57:35;23.00;99.90
14555;DHT22;7364;50.870;4.722;2023-10-13T11:00:04;22.90;99.90
14555;DHT22;7364;50.870;4.722;2023-10-13T11:02:40;23.20;99.90
14555;DHT22;7364;50.870;4.722;2023-10-13T11:05:08;23.10;99.90
14555;DHT22;7364;50.870;4.722;2023-10-13T11:07:45;23.20;99.90
14555;DHT22;7364;50.870;4.722;2023-10-13T11:10:17;23.30;99.90
14555;DHT22;7364;50.870;4.722;2023-10-13T11:12:55;23.40;99.90
14555;DHT22;7364;50.870;4.722;2023-10-13T11:15:42;23.70;99.90
14555;DHT22;7364;50.870;4.722;2023-10-13T11:18:10;23.90;99.90
14555;DHT22;7364;50.870;4.722;2023-10-13T11:20:42;23.80;99.90
14555;DHT22;7364;50.870;4.722;2023-10-13T11:23:14;24.00;99.90
14555;DHT22;7364;50.870;4.722;2023-10-13T11:25:42;23.90;99.90
14555;DHT22;7364;50.870;4.722;2023-10-13T11:28:11;23.70;99.90
14555;DHT22;7364;50.870;4.722;2023-10-13T11:30:46;23.80;99.90
14555;DHT22;7364;50.870;4.722;2023-10-13T11:33:17;24.00;99.90
14555;DHT22;7364;50.870;4.722;2023-10-13T11:35:49;24.00;99.90
14555;DHT22;7364;50.870;4.722;2023-10-13T11:38:25;24.10;99.90
14555;DHT22;7364;50.870;4.722;2023-10-13T11:40:53;24.20;99.90
14555;DHT22;7364;50.870;4.722;2023-10-13T11:43:41;24.20;99.90
14555;DHT22;7364;50.870;4.722;2023-10-13T11:46:32;24.50;99.90
14555;DHT22;7364;50.870;4.722;2023-10-13T11:49:19;24.40;99.90
14555;DHT22;7364;50.870;4.722;2023-10-13T11:51:58;24.30;99.90
14555;DHT22;7364;50.870;4.722;2023-10-13T11:54:45;24.50;99.90
14555;DHT22;7364;50.870;4.722;2023-10-13T11:57:12;24.60;99.90
14555;DHT22;7364;50.870;4.722;2023-10-13T11:59:43;24.60;99.90
14555;DHT22;7364;50.870;4.722;2023-10-13T12:02:21;24.60;99.90
14555;DHT22;7364;50.870;4.722;2023-10-13T12:05:06;24.50;99.90
14555;DHT22;7364;50.870;4.722;2023-10-13T12:07:43;24.50;99.90
14555;DHT22;7364;50.870;4.722;2023-10-13T12:10:15;24.60;99.90
14555;DHT22;7364;50.870;4.722;2023-10-13T12:12:59;24.40;99.90
14555;DHT22;7364;50.870;4.722;2023-10-13T12:15:32;24.70;99.90
14555;DHT22;7364;50.870;4.722;2023-10-13T12:18:17;24.90;99.90
14555;DHT22;7364;50.870;4.722;2023-10-13T12:20:45;24.50;99.90
14555;DHT22;7364;50.870;4.722;2023-10-13T12:23:13;24.20;99.90
14555;DHT22;7364;50.870;4.722;2023-10-13T12:25:47;24.10;99.90
14555;DHT22;7364;50.870;4.722;2023-10-13T12:28:44;24.20;99.90
14555;DHT22;7364;50.870;4.722;2023-10-13T12:31:18;24.30;99.90
14555;DHT22;7364;50.870;4.722;2023-10-13T12:33:52;24.20;99.90
14555;DHT22;7364;50.870;4.722;2023-10-13T12:36:23;24.10;99.90
14555;DHT22;7364;50.870;4.722;2023-10-13T12:39:07;24.20;99.90
14555;DHT22;7364;50.870;4.722;2023-10-13T12:41:53;24.10;99.90
14555;DHT22;7364;50.870;4.722;2023-10-13T12:44:37;24.20;99.90
14555;DHT22;7364;50.870;4.722;2023-10-13T12:47:22;23.80;99.90
14555;DHT22;7364;50.870;4.722;2023-10-13T12:50:07;23.70;99.90
14555;DHT22;7364;50.870;4.722;2023-10-13T12:52:40;23.90;99.90
14555;DHT22;7364;50.870;4.722;2023-10-13T12:55:11;23.80;99.90
14555;DHT22;7364;50.870;4.722;2023-10-13T12:57:42;23.80;99.90
14555;DHT22;7364;50.870;4.722;2023-10-13T13:00:12;23.80;99.90
14555;DHT22;7364;50.870;4.722;2023-10-13T13:03:01;23.50;99.90
14555;DHT22;7364;50.870;4.722;2023-10-13T13:05:37;23.60;99.90
14555;DHT22;7364;50.870;4.722;2023-10-13T13:08:10;23.50;99.90
14555;DHT22;7364;50.870;4.722;2023-10-13T13:10:47;23.50;99.90
14555;DHT22;7364;50.870;4.722;2023-10-13T13:13:16;23.40;99.90
14555;DHT22;7364;50.870;4.722;2023-10-13T13:15:50;23.30;99.90
14555;DHT22;7364;50.870;4.722;2023-10-13T13:18:20;23.40;99.90
14555;DHT22;7364;50.870;4.722;2023-10-13T13:20:47;23.30;99.90
14555;DHT22;7364;50.870;4.722;2023-10-13T13:23:20;23.40;99.90
14555;DHT22;7364;50.870;4.722;2023-10-13T13:25:51;23.40;99.90
14555;DHT22;7364;50.870;4.722;2023-10-13T13:28:20;23.50;99.90
14555;DHT22;7364;50.870;4.722;2023-10-13T13:30:50;23.60;99.90
14555;DHT22;7364;50.870;4.722;2023-10-13T13:33:20;23.70;99.90
14555;DHT22;7364;50.870;4.722;2023-10-13T13:35:54;23.90;99.90
14555;DHT22;7364;50.870;4.722;2023-10-13T13:38:25;23.80;99.90
14555;DHT22;7364;50.870;4.722;2023-10-13T13:40:57;23.50;99.90
14555;DHT22;7364;50.870;4.722;2023-10-13T13:43:28;23.50;99.90
14555;DHT22;7364;50.870;4.722;2023-10-13T13:46:03;23.50;99.90
14555;DHT22;7364;50.870;4.722;2023-10-13T13:48:35;23.50;99.90
14555;DHT22;7364;50.870;4.722;2023-10-13T13:51:04;23.40;99.90
14555;DHT22;7364;50.870;4.722;2023-10-13T13:53:31;23.40;99.90
14555;DHT22;7364;50.870;4.722;2023-10-13T13:56:01;23.60;99.90
14555;DHT22;7364;50.870;4.722;2023-10-13T13:58:30;23.40;99.90
14555;DHT22;7364;50.870;4.722;2023-10-13T14:01:01;23.40;99.90
14555;DHT22;7364;50.870;4.722;2023-10-13T14:03:39;23.60;99.90
14555;DHT22;7364;50.870;4.722;2023-10-13T14:06:12;23.90;99.90
14555;DHT22;7364;50.870;4.722;2023-10-13T14:08:44;24.10;99.90
14555;DHT22;7364;50.870;4.722;2023-10-13T14:11:15;24.40;99.90
14555;DHT22;7364;50.870;4.722;2023-10-13T14:14:01;24.40;99.90
14555;DHT22;7364;50.870;4.722;2023-10-13T14:16:30;24.30;99.90
14555;DHT22;7364;50.870;4.722;2023-10-13T14:18:59;24.30;99.90
14555;DHT22;7364;50.870;4.722;2023-10-13T14:21:27;24.30;99.90
14555;DHT22;7364;50.870;4.722;2023-10-13T14:23:55;24.10;99.90
14555;DHT22;7364;50.870;4.722;2023-10-13T14:26:26;24.20;99.90
14555;DHT22;7364;50.870;4.722;2023-10-13T14:28:54;24.30;99.90
14555;DHT22;7364;50.870;4.722;2023-10-13T14:31:29;24.20;99.90
14555;DHT22;7364;50.870;4.722;2023-10-13T14:33:57;24.20;99.90
14555;DHT22;7364;50.870;4.722;2023-10-13T14:36:24;24.30;99.90
14555;DHT22;7364;50.870;4.722;2023-10-13T14:38:54;24.10;99.90
14555;DHT22;7364;50.870;4.722;2023-10-13T14:41:22;24.20;99.90
14555;DHT22;7364;50.870;4.722;2023-10-13T14:43:49;24.20;99.90
14555;DHT22;7364;50.870;4.722;2023-10-13T14:46:17;24.30;99.90
14555;DHT22;7364;50.870;4.722;2023-10-13T14:48:52;24.10;99.90
14555;DHT22;7364;50.870;4.722;2023-10-13T14:51:19;24.20;99.90
14555;DHT22;7364;50.870;4.722;2023-10-13T14:53:47;24.00;99.90
14555;DHT22;7364;50.870;4.722;2023-10-13T14:56:15;24.10;99.90
14555;DHT22;7364;50.870;4.722;2023-10-13T14:58:44;24.00;99.90
14555;DHT22;7364;50.870;4.722;2023-10-13T15:01:12;23.90;99.90
14555;DHT22;7364;50.870;4.722;2023-10-13T15:03:42;23.90;99.90
14555;DHT22;7364;50.870;4.722;2023-10-13T15:06:16;23.70;99.90
14555;DHT22;7364;50.870;4.722;2023-10-13T15:08:44;23.50;99.90
14555;DHT22;7364;50.870;4.722;2023-10-13T15:11:13;23.40;99.90
14555;DHT22;7364;50.870;4.722;2023-10-13T15:13:40;23.30;99.90
14555;DHT22;7364;50.870;4.722;2023-10-13T15:16:14;23.10;99.90
14555;DHT22;7364;50.870;4.722;2023-10-13T15:18:44;22.90;99.90
14555;DHT22;7364;50.870;4.722;2023-10-13T15:21:15;22.80;99.90
14555;DHT22;7364;50.870;4.722;2023-10-13T15:23:48;22.60;99.90
14555;DHT22;7364;50.870;4.722;2023-10-13T15:26:17;22.40;99.90
14555;DHT22;7364;50.870;4.722;2023-10-13T15:28:47;22.40;99.90
14555;DHT22;7364;50.870;4.722;2023-10-13T15:31:16;22.20;99.90
14555;DHT22;7364;50.870;4.722;2023-10-13T15:33:53;22.20;99.90
14555;DHT22;7364;50.870;4.722;2023-10-13T15:36:21;22.00;99.90
14555;DHT22;7364;50.870;4.722;2023-10-13T15:38:51;21.90;99.90
14555;DHT22;7364;50.870;4.722;2023-10-13T15:41:22;21.80;99.90
14555;DHT22;7364;50.870;4.722;2023-10-13T15:43:49;21.70;99.90
14555;DHT22;7364;50.870;4.722;2023-10-13T15:46:20;21.80;99.90
14555;DHT22;7364;50.870;4.722;2023-10-13T15:48:49;21.70;99.90
14555;DHT22;7364;50.870;4.722;2023-10-13T15:51:17;21.70;99.90
14555;DHT22;7364;50.870;4.722;2023-10-13T15:53:45;21.60;99.90
14555;DHT22;7364;50.870;4.722;2023-10-13T15:56:15;21.50;99.90
14555;DHT22;7364;50.870;4.722;2023-10-13T15:58:42;21.40;99.90
14555;DHT22;7364;50.870;4.722;2023-10-13T16:01:12;21.40;99.90
14555;DHT22;7364;50.870;4.722;2023-10-13T16:03:40;21.40;99.90
14555;DHT22;7364;50.870;4.722;2023-10-13T16:06:09;21.30;99.90
14555;DHT22;7364;50.870;4.722;2023-10-13T16:08:37;21.20;99.90
14555;DHT22;7364;50.870;4.722;2023-10-13T16:11:05;21.20;99.90
14555;DHT22;7364;50.870;4.722;2023-10-13T16:13:36;21.20;99.90
14555;DHT22;7364;50.870;4.722;2023-10-13T16:16:03;21.10;99.90
14555;DHT22;7364;50.870;4.722;2023-10-13T16:18:31;21.20;99.90
14555;DHT22;7364;50.870;4.722;2023-10-13T16:20:59;21.10;99.90
14555;DHT22;7364;50.870;4.722;2023-10-13T16:23:29;21.10;99.90
14555;DHT22;7364;50.870;4.722;2023-10-13T16:25:59;21.10;99.90
14555;DHT22;7364;50.870;4.722;2023-10-13T16:28:33;21.00;99.90
14555;DHT22;7364;50.870;4.722;2023-10-13T16:31:03;21.00;99.90